createdAt,value
2023-06-11T00:02:23.060Z,22.22
2023-06-11T00:04:50.733Z,22.19
2023-06-11T00:07:18.132Z,22.15
2023-06-11T00:09:44.703Z,22.10
2023-06-11T00:12:11.203Z,22.08
2023-06-11T00:14:37.637Z,22.05
2023-06-11T00:17:04.236Z,22.03
2023-06-11T00:19:32.026Z,22.02
2023-06-11T00:21:59.985Z,21.99
2023-06-11T00:24:26.504Z,21.96
2023-06-11T00:26:52.980Z,21.94
2023-06-11T00:29:19.476Z,21.91
2023-06-11T00:31:45.959Z,21.87
2023-06-11T00:34:12.435Z,21.84
2023-06-11T00:36:41.653Z,21.80
2023-06-11T00:39:08.345Z,21.76
2023-06-11T00:41:35.895Z,21.72
2023-06-11T00:44:04.165Z,21.70
2023-06-11T00:46:32.870Z,21.66
2023-06-11T00:48:59.920Z,21.64
2023-06-11T00:51:26.773Z,21.61
2023-06-11T00:53:54.676Z,21.59
2023-06-11T00:56:21.238Z,21.58
2023-06-11T00:58:48.422Z,21.55
2023-06-11T01:01:27.627Z,21.54
2023-06-11T01:03:55.863Z,21.53
2023-06-11T01:06:22.493Z,21.51
2023-06-11T01:08:54.261Z,21.51
2023-06-11T01:11:24.021Z,21.49
2023-06-11T01:13:50.966Z,21.49
2023-06-11T01:16:22.004Z,21.46
2023-06-11T01:19:04.648Z,21.44
2023-06-11T01:21:34.275Z,21.42
2023-06-11T01:24:19.994Z,21.39
2023-06-11T01:26:56.337Z,21.35
2023-06-11T01:29:23.114Z,21.34
2023-06-11T01:31:49.676Z,21.34
2023-06-11T01:34:16.186Z,21.30
2023-06-11T01:36:42.658Z,21.27
2023-06-11T01:39:10.207Z,21.26
2023-06-11T01:41:36.688Z,21.26
2023-06-11T01:44:03.150Z,21.27
2023-06-11T01:46:29.961Z,21.24
2023-06-11T01:48:57.322Z,21.23
2023-06-11T01:51:23.782Z,21.21
2023-06-11T01:53:50.725Z,21.16
2023-06-11T01:56:17.301Z,21.12
2023-06-11T01:58:46.681Z,21.11
2023-06-11T02:01:13.390Z,21.08
2023-06-11T02:03:41.119Z,21.04
2023-06-11T02:06:08.263Z,20.99
2023-06-11T02:08:35.256Z,20.94
2023-06-11T02:11:02.631Z,20.90
2023-06-11T02:13:31.850Z,20.88
2023-06-11T02:15:59.671Z,20.85
2023-06-11T02:18:26.306Z,20.84
2023-06-11T02:20:52.838Z,20.82
2023-06-11T02:23:19.306Z,20.82
2023-06-11T02:25:45.842Z,20.78
2023-06-11T02:28:12.252Z,20.75
2023-06-11T02:30:38.690Z,20.76
2023-06-11T02:33:05.205Z,20.78
2023-06-11T02:35:31.711Z,20.75
2023-06-11T02:37:58.172Z,20.74
2023-06-11T02:40:24.923Z,20.71
2023-06-11T02:42:51.381Z,20.68
2023-06-11T02:45:17.779Z,20.66
2023-06-11T02:47:44.390Z,20.63
2023-06-11T02:50:11.063Z,20.64
2023-06-11T02:52:37.750Z,20.62
2023-06-11T02:55:04.468Z,20.60
2023-06-11T02:57:30.971Z,20.59
2023-06-11T02:59:57.475Z,20.61
2023-06-11T03:02:23.974Z,20.62
2023-06-11T03:04:50.519Z,20.62
2023-06-11T03:07:16.970Z,20.64
2023-06-11T03:09:43.429Z,20.60
2023-06-11T03:12:10.104Z,20.59
2023-06-11T03:14:36.502Z,20.58
2023-06-11T03:17:02.968Z,20.59
2023-06-11T03:19:29.463Z,20.58
2023-06-11T03:21:55.931Z,20.56
2023-06-11T03:24:22.423Z,20.58
2023-06-11T03:26:48.889Z,20.58
2023-06-11T03:29:15.396Z,20.59
2023-06-11T03:31:41.852Z,20.60
2023-06-11T03:34:08.425Z,20.59
2023-06-11T03:36:34.942Z,20.56
2023-06-11T03:39:01.339Z,20.50
2023-06-11T03:41:27.824Z,20.44
2023-06-11T03:43:54.334Z,20.40
2023-06-11T03:46:22.583Z,20.39
2023-06-11T03:48:49.125Z,20.40
2023-06-11T03:51:15.808Z,20.40
2023-06-11T03:53:42.280Z,20.45
2023-06-11T03:56:08.757Z,20.52
2023-06-11T03:58:35.689Z,20.59
2023-06-11T04:01:02.163Z,20.63
2023-06-11T04:03:28.644Z,20.66
2023-06-11T04:05:55.243Z,20.76
2023-06-11T04:08:21.704Z,20.96
2023-06-11T04:10:48.376Z,21.13
2023-06-11T04:13:14.970Z,21.33
2023-06-11T04:15:41.408Z,21.52
2023-06-11T04:18:07.960Z,21.68
2023-06-11T04:20:34.501Z,21.88
2023-06-11T04:23:00.903Z,22.09
2023-06-11T04:25:27.438Z,22.32
2023-06-11T04:27:54.402Z,22.48
2023-06-11T04:30:21.930Z,22.62
2023-06-11T04:32:56.073Z,22.72
2023-06-11T04:35:24.844Z,22.89
2023-06-11T04:37:51.376Z,23.05
2023-06-11T04:40:19.153Z,23.20
2023-06-11T04:42:47.384Z,23.29
2023-06-11T04:45:14.241Z,23.47
2023-06-11T04:47:41.932Z,23.65
2023-06-11T04:50:08.609Z,23.83
2023-06-11T04:52:44.204Z,23.93
2023-06-11T04:55:11.665Z,24.04
2023-06-11T04:57:38.399Z,24.22
2023-06-11T05:00:09.390Z,24.33
2023-06-11T05:02:40.107Z,24.38
2023-06-11T05:05:07.052Z,24.42
2023-06-11T05:07:33.882Z,24.43
2023-06-11T05:10:01.600Z,24.41
2023-06-11T05:12:29.169Z,24.45
2023-06-11T05:14:55.796Z,24.43
2023-06-11T05:17:22.293Z,24.41
2023-06-11T05:19:48.748Z,24.44
2023-06-11T05:22:15.715Z,24.43
2023-06-11T05:24:44.093Z,24.39
2023-06-11T05:27:10.727Z,24.38
2023-06-11T05:29:39.109Z,24.39
2023-06-11T05:32:06.739Z,24.36
2023-06-11T05:34:34.501Z,24.31
2023-06-11T05:37:02.205Z,24.34
2023-06-11T05:39:28.629Z,24.31
2023-06-11T05:41:55.060Z,24.30
2023-06-11T05:44:21.585Z,24.34
2023-06-11T05:46:48.237Z,24.39
2023-06-11T05:49:14.821Z,24.42
2023-06-11T05:51:41.381Z,24.39
2023-06-11T05:54:08.454Z,24.38
2023-06-11T05:56:34.899Z,24.46
2023-06-11T05:59:01.843Z,24.50
2023-06-11T06:01:29.656Z,24.51
2023-06-11T06:03:56.460Z,24.51
2023-06-11T06:06:22.998Z,24.54
2023-06-11T06:08:49.471Z,24.56
2023-06-11T06:11:15.969Z,24.59
2023-06-11T06:13:42.442Z,24.68
2023-06-11T06:16:09.037Z,24.82
2023-06-11T06:18:35.870Z,24.93
2023-06-11T06:21:02.323Z,25.04
2023-06-11T06:23:28.788Z,25.11
2023-06-11T06:25:55.253Z,25.19
2023-06-11T06:28:21.702Z,25.30
2023-06-11T06:30:48.307Z,25.41
2023-06-11T06:33:14.855Z,25.51
2023-06-11T06:35:41.405Z,25.62
2023-06-11T06:38:07.993Z,25.65
2023-06-11T06:40:34.529Z,25.68
2023-06-11T06:43:01.121Z,25.73
2023-06-11T06:45:27.568Z,25.83
2023-06-11T06:47:54.223Z,25.92
2023-06-11T06:50:20.859Z,26.00
2023-06-11T06:52:47.334Z,26.06
2023-06-11T06:55:13.768Z,26.13
2023-06-11T06:57:40.377Z,26.18
2023-06-11T07:00:08.944Z,26.22
2023-06-11T07:02:35.827Z,26.28
2023-06-11T07:05:02.361Z,26.31
2023-06-11T07:07:28.801Z,26.34
2023-06-11T07:09:55.256Z,26.39
2023-06-11T07:12:22.431Z,26.44
2023-06-11T07:14:48.982Z,26.45
2023-06-11T07:17:15.565Z,26.47
2023-06-11T07:19:42.196Z,26.51
2023-06-11T07:22:08.714Z,26.56
2023-06-11T07:24:36.554Z,26.58
2023-06-11T07:27:03.276Z,26.59
2023-06-11T07:29:30.771Z,26.59
2023-06-11T07:31:57.435Z,26.63
2023-06-11T07:34:24.005Z,26.67
2023-06-11T07:36:51.240Z,26.67
2023-06-11T07:39:17.999Z,26.71
2023-06-11T07:41:44.473Z,26.73
2023-06-11T07:44:10.977Z,26.76
2023-06-11T07:46:37.476Z,26.78
2023-06-11T07:49:04.866Z,26.83
2023-06-11T07:51:32.370Z,26.84
2023-06-11T07:54:00.210Z,26.86
2023-06-11T07:56:27.684Z,26.92
2023-06-11T07:58:54.151Z,26.97
2023-06-11T08:01:20.610Z,26.97
2023-06-11T08:03:47.103Z,26.97
2023-06-11T08:06:13.748Z,26.99
2023-06-11T08:08:40.268Z,27.01
2023-06-11T08:11:07.261Z,27.05
2023-06-11T08:13:36.651Z,27.08
2023-06-11T08:16:03.925Z,27.14
2023-06-11T08:18:30.430Z,27.17
2023-06-11T08:20:56.959Z,27.18
2023-06-11T08:23:23.508Z,27.21
2023-06-11T08:25:49.921Z,27.23
2023-06-11T08:28:16.967Z,27.24
2023-06-11T08:30:43.415Z,27.28
2023-06-11T08:33:10.166Z,27.30
2023-06-11T08:35:36.786Z,27.38
2023-06-11T08:38:03.408Z,27.48
2023-06-11T08:40:30.579Z,27.58
2023-06-11T08:42:57.137Z,27.69
2023-06-11T08:45:23.624Z,27.78
2023-06-11T08:47:53.190Z,27.80
2023-06-11T08:50:20.120Z,27.86
2023-06-11T08:52:46.574Z,27.91
2023-06-11T08:55:13.845Z,27.90
2023-06-11T08:57:40.733Z,27.90
2023-06-11T09:00:11.122Z,27.89
2023-06-11T09:02:38.033Z,27.90
2023-06-11T09:05:05.229Z,27.90
2023-06-11T09:07:31.681Z,27.92
2023-06-11T09:10:11.138Z,27.92
2023-06-11T09:12:38.070Z,27.96
2023-06-11T09:15:05.244Z,27.96
2023-06-11T09:17:35.587Z,27.94
2023-06-11T09:20:04.302Z,27.94
2023-06-11T09:22:31.107Z,27.94
2023-06-11T09:24:57.585Z,27.92
2023-06-11T09:27:24.061Z,27.91
2023-06-11T09:29:50.502Z,27.88
2023-06-11T09:34:51.054Z,27.82
2023-06-11T09:37:17.839Z,27.80
2023-06-11T09:39:46.619Z,27.79
2023-06-11T09:42:28.762Z,27.80
2023-06-11T09:45:01.606Z,27.81
2023-06-11T09:47:28.844Z,27.79
2023-06-11T09:49:55.354Z,27.79
2023-06-11T09:52:21.805Z,27.80
2023-06-11T09:54:50.189Z,27.79
2023-06-11T09:57:17.346Z,27.79
2023-06-11T09:59:43.782Z,27.79
2023-06-11T10:02:10.236Z,27.82
2023-06-11T10:04:36.719Z,27.82
2023-06-11T10:07:03.145Z,27.84
2023-06-11T10:09:30.876Z,27.85
2023-06-11T10:11:57.262Z,27.87
2023-06-11T10:14:23.938Z,27.86
2023-06-11T10:16:51.179Z,27.89
2023-06-11T10:19:17.639Z,27.89
2023-06-11T10:21:45.626Z,27.91
2023-06-11T10:24:22.392Z,27.91
2023-06-11T10:27:11.854Z,27.94
2023-06-11T10:29:39.017Z,27.99
2023-06-11T10:32:16.010Z,28.00
2023-06-11T10:34:42.756Z,28.01
2023-06-11T10:37:10.221Z,28.02
2023-06-11T10:39:36.639Z,28.01
2023-06-11T10:42:03.565Z,28.00
2023-06-11T10:44:30.896Z,28.00
2023-06-11T10:47:00.177Z,28.01
2023-06-11T10:49:27.478Z,28.00
2023-06-11T10:51:54.122Z,28.02
2023-06-11T10:54:24.276Z,28.05
2023-06-11T10:56:50.870Z,28.02
2023-06-11T10:59:17.582Z,28.01
2023-06-11T11:01:44.017Z,27.97
2023-06-11T11:04:10.545Z,27.92
2023-06-11T11:06:38.111Z,27.91
2023-06-11T11:09:04.670Z,27.94
2023-06-11T11:11:31.242Z,27.94
2023-06-11T11:14:02.114Z,27.91
2023-06-11T11:16:28.792Z,27.90
2023-06-11T11:18:55.284Z,27.89
2023-06-11T11:21:27.782Z,27.87
2023-06-11T11:23:54.417Z,27.88
2023-06-11T11:26:21.008Z,27.91
2023-06-11T11:28:47.989Z,27.91
2023-06-11T11:31:14.855Z,27.90
2023-06-11T11:33:41.323Z,27.90
2023-06-11T11:36:07.870Z,27.87
2023-06-11T11:38:37.242Z,27.82
2023-06-11T11:41:03.764Z,27.82
2023-06-11T11:43:56.431Z,27.83
2023-06-11T11:46:25.007Z,27.84
2023-06-11T11:48:54.683Z,27.82
2023-06-11T11:51:21.600Z,27.82
2023-06-11T11:53:48.336Z,27.82
2023-06-11T11:56:14.936Z,27.83
2023-06-11T11:58:41.997Z,27.80
2023-06-11T12:01:10.899Z,27.80
2023-06-11T12:03:40.814Z,27.84
2023-06-11T12:06:09.413Z,27.85
2023-06-11T12:08:36.363Z,27.84
2023-06-11T12:11:04.835Z,27.84
2023-06-11T12:13:31.311Z,27.84
2023-06-11T12:15:59.180Z,27.86
2023-06-11T12:18:27.590Z,27.86
2023-06-11T12:20:54.238Z,27.85
2023-06-11T12:23:21.090Z,27.87
2023-06-11T12:25:48.515Z,27.85
2023-06-11T12:28:15.045Z,27.76
2023-06-11T12:30:41.776Z,27.59
2023-06-11T12:33:08.438Z,27.43
2023-06-11T12:35:34.959Z,27.28
2023-06-11T12:38:02.186Z,27.10
2023-06-11T12:40:31.445Z,26.95
2023-06-11T12:43:00.022Z,26.83
2023-06-11T12:45:26.966Z,26.71
2023-06-11T12:47:53.621Z,26.61
2023-06-11T12:50:23.062Z,26.51
2023-06-11T12:52:50.993Z,26.44
2023-06-11T12:55:17.443Z,26.39
2023-06-11T12:57:43.890Z,26.35
2023-06-11T13:00:11.076Z,26.32
2023-06-11T13:02:38.078Z,26.29
2023-06-11T13:05:05.155Z,26.27
2023-06-11T13:07:31.690Z,26.25
2023-06-11T13:09:58.224Z,26.23
2023-06-11T13:12:28.320Z,26.22
2023-06-11T13:14:54.965Z,26.20
2023-06-11T13:17:21.681Z,26.21
2023-06-11T13:19:48.275Z,26.22
2023-06-11T13:22:17.185Z,26.21
2023-06-11T13:24:43.835Z,26.21
2023-06-11T13:27:10.576Z,26.19
2023-06-11T13:29:37.121Z,26.17
2023-06-11T13:32:04.391Z,26.16
2023-06-11T13:34:32.982Z,26.13
2023-06-11T13:37:01.254Z,26.11
2023-06-11T13:39:27.829Z,26.13
2023-06-11T13:41:55.509Z,26.17
2023-06-11T13:44:23.570Z,26.21
2023-06-11T13:46:50.117Z,26.28
2023-06-11T13:49:17.098Z,26.33
2023-06-11T13:51:43.614Z,26.40
2023-06-11T13:54:10.059Z,26.47
2023-06-11T13:56:36.600Z,26.49
2023-06-11T13:59:03.898Z,26.48
2023-06-11T14:01:30.412Z,26.49
2023-06-11T14:03:57.022Z,26.49
2023-06-11T14:06:24.736Z,26.49
2023-06-11T14:08:51.271Z,26.49
2023-06-11T14:11:18.843Z,26.49
2023-06-11T14:13:45.749Z,26.51
2023-06-11T14:16:12.351Z,26.53
2023-06-11T14:18:38.903Z,26.56
2023-06-11T14:21:05.372Z,26.56
2023-06-11T14:23:31.827Z,26.57
2023-06-11T14:25:58.296Z,26.56
2023-06-11T14:28:24.749Z,26.56
2023-06-11T14:30:53.650Z,26.55
2023-06-11T14:33:20.820Z,26.55
2023-06-11T14:35:47.521Z,26.55
2023-06-11T14:38:14.074Z,26.56
2023-06-11T14:40:41.205Z,26.52
2023-06-11T14:43:07.825Z,26.45
2023-06-11T14:45:34.323Z,26.43
2023-06-11T14:48:02.719Z,26.37
2023-06-11T14:50:29.273Z,26.36
2023-06-11T14:52:55.980Z,26.31
2023-06-11T14:55:22.497Z,26.29
2023-06-11T14:57:49.011Z,26.25
2023-06-11T15:00:15.770Z,26.21
2023-06-11T15:02:42.342Z,26.17
2023-06-11T15:05:09.042Z,26.13
2023-06-11T15:07:36.257Z,26.10
2023-06-11T15:10:03.964Z,26.06
2023-06-11T15:12:30.548Z,26.03
2023-06-11T15:14:57.027Z,26.00
2023-06-11T15:17:23.556Z,25.99
2023-06-11T15:19:50.085Z,26.00
2023-06-11T15:22:16.480Z,26.02
2023-06-11T15:24:42.912Z,26.04
2023-06-11T15:27:09.409Z,26.06
2023-06-11T15:29:35.852Z,26.06
2023-06-11T15:32:02.381Z,26.06
2023-06-11T15:34:29.003Z,26.08
2023-06-11T15:36:55.597Z,26.04
2023-06-11T15:39:21.995Z,25.98
2023-06-11T15:41:48.566Z,25.91
2023-06-11T15:44:15.009Z,25.86
2023-06-11T15:46:41.509Z,25.83
2023-06-11T15:49:08.018Z,25.82
2023-06-11T15:51:34.484Z,25.81
2023-06-11T15:54:03.507Z,25.80
2023-06-11T15:56:30.488Z,25.80
2023-06-11T15:58:56.871Z,25.79
2023-06-11T16:01:23.467Z,25.78
2023-06-11T16:03:49.986Z,25.79
2023-06-11T16:06:17.911Z,25.81
2023-06-11T16:08:44.400Z,25.84
2023-06-11T16:11:10.885Z,25.83
2023-06-11T16:13:37.346Z,25.86
2023-06-11T16:16:03.931Z,25.84
2023-06-11T16:18:30.426Z,25.74
2023-06-11T16:20:56.896Z,25.73
2023-06-11T16:23:23.720Z,25.73
2023-06-11T16:25:51.453Z,25.69
2023-06-11T16:28:17.958Z,25.64
2023-06-11T16:30:44.438Z,25.56
2023-06-11T16:33:11.109Z,25.53
2023-06-11T16:35:37.610Z,25.57
2023-06-11T16:38:04.092Z,25.61
2023-06-11T16:40:30.610Z,25.63
2023-06-11T16:42:57.102Z,25.65
2023-06-11T16:45:23.564Z,25.67
2023-06-11T16:47:50.243Z,25.68
2023-06-11T16:50:16.863Z,25.67
2023-06-11T16:52:43.385Z,25.67
2023-06-11T16:55:11.902Z,25.67
2023-06-11T16:57:38.629Z,25.65
2023-06-11T17:00:05.843Z,25.62
2023-06-11T17:02:34.605Z,25.61
2023-06-11T17:05:01.345Z,25.59
2023-06-11T17:07:27.848Z,25.56
2023-06-11T17:09:54.341Z,25.56
2023-06-11T17:12:20.847Z,25.58
2023-06-11T17:14:47.400Z,25.62
2023-06-11T17:17:13.910Z,25.64
2023-06-11T17:19:45.950Z,25.69
2023-06-11T17:22:15.210Z,25.71
2023-06-11T17:24:41.697Z,25.69
2023-06-11T17:27:08.588Z,25.68
2023-06-11T17:29:35.108Z,25.66
2023-06-11T17:32:01.756Z,25.65
2023-06-11T17:34:28.296Z,25.61
2023-06-11T17:36:54.708Z,25.57
2023-06-11T17:39:21.152Z,25.55
2023-06-11T17:41:47.686Z,25.51
2023-06-11T17:44:14.184Z,25.46
2023-06-11T17:46:40.736Z,25.40
2023-06-11T17:49:07.274Z,25.36
2023-06-11T17:51:33.706Z,25.31
2023-06-11T17:54:00.201Z,25.25
2023-06-11T17:56:26.629Z,25.24
2023-06-11T17:58:53.088Z,25.22
2023-06-11T18:01:21.665Z,25.19
2023-06-11T18:03:49.996Z,25.15
2023-06-11T18:06:18.713Z,25.06
2023-06-11T18:08:45.668Z,25.01
2023-06-11T18:11:12.126Z,24.97
2023-06-11T18:13:39.840Z,24.94
2023-06-11T18:16:06.533Z,24.91
2023-06-11T18:18:33.488Z,24.90
2023-06-11T18:21:00.018Z,24.88
2023-06-11T18:23:26.576Z,24.84
2023-06-11T18:25:53.158Z,24.83
2023-06-11T18:28:20.235Z,24.79
2023-06-11T18:30:46.858Z,24.76
2023-06-11T18:33:13.392Z,24.70
2023-06-11T18:35:39.884Z,24.66
2023-06-11T18:38:06.365Z,24.63
2023-06-11T18:40:32.821Z,24.61
2023-06-11T18:42:59.315Z,24.59
2023-06-11T18:45:25.755Z,24.51
2023-06-11T18:47:54.668Z,24.47
2023-06-11T18:50:21.773Z,24.46
2023-06-11T18:52:48.154Z,24.46
2023-06-11T18:55:14.784Z,24.43
2023-06-11T18:57:41.383Z,24.40
2023-06-11T19:00:08.752Z,24.37
2023-06-11T19:02:35.659Z,24.31
2023-06-11T19:05:02.202Z,24.25
2023-06-11T19:07:31.239Z,24.22
2023-06-11T19:09:58.296Z,24.17
2023-06-11T19:12:24.802Z,24.09
2023-06-11T19:14:51.213Z,23.99
2023-06-11T19:17:17.929Z,23.93
2023-06-11T19:19:44.525Z,23.90
2023-06-11T19:22:10.916Z,23.81
2023-06-11T19:24:37.369Z,23.75
2023-06-11T19:27:04.208Z,23.82
2023-06-11T19:29:32.330Z,23.99
2023-06-11T19:31:58.880Z,24.20
2023-06-11T19:34:25.988Z,24.26
2023-06-11T19:36:52.413Z,24.29
2023-06-11T19:39:18.907Z,24.25
2023-06-11T19:41:45.400Z,24.27
2023-06-11T19:44:11.874Z,24.26
2023-06-11T19:46:40.691Z,24.23
2023-06-11T19:49:07.579Z,24.21
2023-06-11T19:51:34.050Z,24.23
2023-06-11T19:54:01.156Z,24.30
2023-06-11T19:56:28.927Z,24.31
2023-06-11T19:58:57.414Z,24.36
2023-06-11T20:01:24.749Z,24.35
2023-06-11T20:03:51.362Z,24.30
2023-06-11T20:06:17.974Z,24.23
2023-06-11T20:08:44.470Z,24.22
2023-06-11T20:11:12.169Z,24.16
2023-06-11T20:13:42.239Z,24.06
2023-06-11T20:16:08.714Z,23.96
2023-06-11T20:18:35.854Z,23.89
2023-06-11T20:21:02.474Z,23.82
2023-06-11T20:23:30.468Z,23.70
2023-06-11T20:25:56.926Z,23.58
2023-06-11T20:28:23.367Z,23.49
2023-06-11T20:30:49.927Z,23.40
2023-06-11T20:33:17.827Z,23.32
2023-06-11T20:35:47.414Z,23.28
2023-06-11T20:38:14.076Z,23.24
2023-06-11T20:40:41.197Z,23.20
2023-06-11T20:43:07.918Z,23.16
2023-06-11T20:45:35.798Z,23.14
2023-06-11T20:48:04.822Z,23.08
2023-06-11T20:50:31.900Z,23.04
2023-06-11T20:52:58.351Z,22.99
2023-06-11T20:55:24.939Z,22.95
2023-06-11T20:57:51.436Z,22.89
2023-06-11T21:00:18.140Z,22.83
2023-06-11T21:02:44.689Z,22.79
2023-06-11T21:05:11.312Z,22.77
2023-06-11T21:07:37.869Z,22.75
2023-06-11T21:10:04.748Z,22.73
2023-06-11T21:12:31.153Z,22.72
2023-06-11T21:14:57.607Z,22.68
2023-06-11T21:17:24.090Z,22.65
2023-06-11T21:19:50.707Z,22.60
2023-06-11T21:22:17.171Z,22.56
2023-06-11T21:24:43.643Z,22.52
2023-06-11T21:27:10.096Z,22.52
2023-06-11T21:29:36.615Z,22.48
2023-06-11T21:32:03.407Z,22.46
2023-06-11T21:34:30.005Z,22.43
2023-06-11T21:36:56.697Z,22.38
2023-06-11T21:39:23.177Z,22.36
2023-06-11T21:41:51.616Z,22.36
2023-06-11T21:44:19.587Z,22.31
2023-06-11T21:46:46.076Z,22.29
2023-06-11T21:49:12.573Z,22.25
2023-06-11T21:51:39.058Z,22.23
2023-06-11T21:54:05.892Z,22.18
2023-06-11T21:56:32.681Z,22.13
2023-06-11T21:58:59.273Z,22.10
2023-06-11T22:01:25.868Z,22.04
2023-06-11T22:03:52.447Z,22.01
2023-06-11T22:06:18.892Z,21.99
2023-06-11T22:08:45.754Z,21.93
2023-06-11T22:11:12.263Z,21.87
2023-06-11T22:13:38.814Z,21.81
2023-06-11T22:16:05.338Z,21.77
2023-06-11T22:18:34.129Z,21.75
2023-06-11T22:21:01.019Z,21.71
2023-06-11T22:23:41.411Z,21.64
2023-06-11T22:26:14.023Z,21.62
2023-06-11T22:28:40.743Z,21.62
2023-06-11T22:31:07.221Z,21.59
2023-06-11T22:33:33.729Z,21.57
2023-06-11T22:36:00.302Z,21.58
2023-06-11T22:38:26.799Z,21.57
2023-06-11T22:40:53.264Z,21.54
2023-06-11T22:43:19.770Z,21.54
2023-06-11T22:45:46.217Z,21.54
2023-06-11T22:48:12.731Z,21.53
2023-06-11T22:50:39.386Z,21.52
2023-06-11T22:53:05.787Z,21.51
2023-06-11T22:55:32.326Z,21.51
2023-06-11T22:57:58.813Z,21.52
2023-06-11T23:00:25.306Z,21.49
2023-06-11T23:02:54.564Z,21.49
2023-06-11T23:05:21.130Z,21.50
2023-06-11T23:07:48.717Z,21.46
2023-06-11T23:10:20.110Z,21.41
2023-06-11T23:12:46.728Z,21.37
2023-06-11T23:15:13.166Z,21.33
2023-06-11T23:17:42.580Z,21.31
2023-06-11T23:20:09.702Z,21.27
2023-06-11T23:22:38.143Z,21.27
2023-06-11T23:25:05.762Z,21.29
2023-06-11T23:27:36.341Z,21.31
2023-06-11T23:30:03.902Z,21.31
2023-06-11T23:32:31.241Z,21.31
2023-06-11T23:35:01.180Z,21.27
2023-06-11T23:37:28.519Z,21.21
2023-06-11T23:39:55.528Z,21.19
2023-06-11T23:42:22.000Z,21.18
2023-06-11T23:44:48.475Z,21.18
2023-06-11T23:47:15.141Z,21.17
2023-06-11T23:49:41.618Z,21.13
2023-06-11T23:52:08.209Z,21.14
2023-06-11T23:54:34.648Z,21.14
2023-06-11T23:57:01.078Z,21.08
2023-06-11T23:59:27.504Z,21.07
